Terminal Aerodrome Forecast
Issued by NWS

Home | Current Version | Previous Version | Text Only | Print | Product List | Glossary On
Versions: 1 2 3 4 5 6 7 8 9 10 11 12
000
FTAK31 PAJN 051100
TAFAPG
TAF
PAPG 051139Z 0512/0612 VRB03KT P6SM VCSH BKN020 OVC030
     FM051400 VRB03KT 4SM -RA BR BKN008 OVC015
     FM060000 22005KT 6SM -RA VCSH SCT015 OVC035
     FM060500 VRB05KT P6SM VCSH SCT010 BKN040
      AMD NOT SKED=

USA.gov is the U.S. government's official web portal to all federal, state and local government web resources and services.